Terminal Aerodrome Forecast
Issued by NWS Cleveland, OH

Home | Current Version | Previous Version | Text Only | Print | Product List | Glossary On
Versions: 1 2 3 4 5 6 7 8 9 10 11 12 13 14 15 16 17 18 19 20 21 22
917
FTUS41 KCLE 201910 AAA
TAFCAK
TAF AMD
KCAK 201910Z 2019/2118 20010KT 6SM BR OVC003
      TEMPO 2019/2022 3SM BR VV001
     FM202200 22008KT 5SM BR OVC008
     FM210200 20005KT 4SM BR OVC012
      TEMPO 2110/2114 2SM BR OVC006
     FM211500 20008KT 6SM BR OVC020=

USA.gov is the U.S. government's official web portal to all federal, state and local government web resources and services.